sensor_id;sensor_type;location;lat;lon;timestamp;temperature;humidity
42905;DHT22;28550;51.228;4.528;2023-07-09T00:00:54;23.20;21.10
42905;DHT22;28550;51.228;4.528;2023-07-09T00:04:14;23.10;24.10
42905;DHT22;28550;51.228;4.528;2023-07-09T00:06:52;23.00;25.80
42905;DHT22;28550;51.228;4.528;2023-07-09T00:09:28;22.90;30.10
42905;DHT22;28550;51.228;4.528;2023-07-09T00:12:01;22.90;35.40
42905;DHT22;28550;51.228;4.528;2023-07-09T00:14:32;22.90;38.20
42905;DHT22;28550;51.228;4.528;2023-07-09T00:17:07;22.80;40.10
42905;DHT22;28550;51.228;4.528;2023-07-09T00:19:55;22.80;42.40
42905;DHT22;28550;51.228;4.528;2023-07-09T00:23:06;22.90;37.20
42905;DHT22;28550;51.228;4.528;2023-07-09T00:25:40;22.90;34.40
42905;DHT22;28550;51.228;4.528;2023-07-09T00:28:40;22.80;33.60
42905;DHT22;28550;51.228;4.528;2023-07-09T00:31:25;22.70;39.00
42905;DHT22;28550;51.228;4.528;2023-07-09T00:34:00;22.70;41.60
42905;DHT22;28550;51.228;4.528;2023-07-09T00:36:30;22.70;44.90
42905;DHT22;28550;51.228;4.528;2023-07-09T00:39:32;22.70;46.30
42905;DHT22;28550;51.228;4.528;2023-07-09T00:42:59;22.60;44.60
42905;DHT22;28550;51.228;4.528;2023-07-09T00:45:34;22.70;43.90
42905;DHT22;28550;51.228;4.528;2023-07-09T00:48:12;22.50;45.30
42905;DHT22;28550;51.228;4.528;2023-07-09T00:51:13;22.50;48.30
42905;DHT22;28550;51.228;4.528;2023-07-09T00:57:01;22.40;50.30
42905;DHT22;28550;51.228;4.528;2023-07-09T00:59:30;22.30;54.00
42905;DHT22;28550;51.228;4.528;2023-07-09T01:02:18;22.30;55.70
42905;DHT22;28550;51.228;4.528;2023-07-09T01:04:53;22.30;58.30
42905;DHT22;28550;51.228;4.528;2023-07-09T01:07:24;22.30;61.80
42905;DHT22;28550;51.228;4.528;2023-07-09T01:10:08;22.20;63.30
42905;DHT22;28550;51.228;4.528;2023-07-09T01:12:47;22.30;58.80
42905;DHT22;28550;51.228;4.528;2023-07-09T01:18:43;22.20;61.70
42905;DHT22;28550;51.228;4.528;2023-07-09T01:21:39;22.10;60.00
42905;DHT22;28550;51.228;4.528;2023-07-09T01:30:37;22.00;65.50
42905;DHT22;28550;51.228;4.528;2023-07-09T01:39:44;21.80;79.00
42905;DHT22;28550;51.228;4.528;2023-07-09T01:42:32;21.80;79.80
42905;DHT22;28550;51.228;4.528;2023-07-09T01:45:31;21.90;80.70
42905;DHT22;28550;51.228;4.528;2023-07-09T01:54:11;22.00;73.80
42905;DHT22;28550;51.228;4.528;2023-07-09T01:57:20;22.10;71.20
42905;DHT22;28550;51.228;4.528;2023-07-09T02:00:16;22.20;69.20
42905;DHT22;28550;51.228;4.528;2023-07-09T02:02:53;22.20;69.60
42905;DHT22;28550;51.228;4.528;2023-07-09T02:05:45;22.10;68.70
42905;DHT22;28550;51.228;4.528;2023-07-09T02:08:20;22.10;68.40
42905;DHT22;28550;51.228;4.528;2023-07-09T02:11:12;22.00;69.80
42905;DHT22;28550;51.228;4.528;2023-07-09T02:13:38;22.00;68.50
42905;DHT22;28550;51.228;4.528;2023-07-09T02:16:19;22.00;73.10
42905;DHT22;28550;51.228;4.528;2023-07-09T02:19:17;22.00;71.20
42905;DHT22;28550;51.228;4.528;2023-07-09T02:22:05;22.00;72.80
42905;DHT22;28550;51.228;4.528;2023-07-09T02:24:33;22.10;71.10
42905;DHT22;28550;51.228;4.528;2023-07-09T02:27:53;22.10;68.90
42905;DHT22;28550;51.228;4.528;2023-07-09T02:30:20;22.20;62.20
42905;DHT22;28550;51.228;4.528;2023-07-09T02:33:06;22.20;65.10
42905;DHT22;28550;51.228;4.528;2023-07-09T02:35:52;22.10;67.40
42905;DHT22;28550;51.228;4.528;2023-07-09T02:38:24;22.00;69.80
42905;DHT22;28550;51.228;4.528;2023-07-09T02:40:57;22.00;71.20
42905;DHT22;28550;51.228;4.528;2023-07-09T02:43:27;22.00;72.70
42905;DHT22;28550;51.228;4.528;2023-07-09T02:45:59;22.00;73.80
42905;DHT22;28550;51.228;4.528;2023-07-09T02:48:48;22.00;74.00
42905;DHT22;28550;51.228;4.528;2023-07-09T02:51:26;22.10;70.60
42905;DHT22;28550;51.228;4.528;2023-07-09T02:54:02;22.10;70.30
42905;DHT22;28550;51.228;4.528;2023-07-09T02:57:16;22.10;68.60
42905;DHT22;28550;51.228;4.528;2023-07-09T03:03:36;22.10;65.90
42905;DHT22;28550;51.228;4.528;2023-07-09T03:06:14;22.10;64.20
42905;DHT22;28550;51.228;4.528;2023-07-09T03:08:40;22.10;66.30
42905;DHT22;28550;51.228;4.528;2023-07-09T03:11:13;22.10;64.40
42905;DHT22;28550;51.228;4.528;2023-07-09T03:14:17;22.10;67.40
42905;DHT22;28550;51.228;4.528;2023-07-09T03:17:06;22.10;64.90
42905;DHT22;28550;51.228;4.528;2023-07-09T03:19:40;22.10;66.00
42905;DHT22;28550;51.228;4.528;2023-07-09T03:22:06;22.10;66.60
42905;DHT22;28550;51.228;4.528;2023-07-09T03:24:43;22.00;65.20
42905;DHT22;28550;51.228;4.528;2023-07-09T03:27:20;22.10;65.10
42905;DHT22;28550;51.228;4.528;2023-07-09T03:30:04;22.10;65.70
42905;DHT22;28550;51.228;4.528;2023-07-09T03:32:57;22.00;67.00
42905;DHT22;28550;51.228;4.528;2023-07-09T03:36:00;22.10;67.80
42905;DHT22;28550;51.228;4.528;2023-07-09T03:38:33;22.10;64.80
42905;DHT22;28550;51.228;4.528;2023-07-09T03:41:14;22.10;63.60
42905;DHT22;28550;51.228;4.528;2023-07-09T03:44:05;22.10;66.10
42905;DHT22;28550;51.228;4.528;2023-07-09T03:46:35;22.10;67.50
42905;DHT22;28550;51.228;4.528;2023-07-09T03:49:12;22.00;65.60
42905;DHT22;28550;51.228;4.528;2023-07-09T03:51:44;22.00;63.20
42905;DHT22;28550;51.228;4.528;2023-07-09T03:54:17;22.00;66.00
42905;DHT22;28550;51.228;4.528;2023-07-09T03:57:05;22.10;62.20
42905;DHT22;28550;51.228;4.528;2023-07-09T03:59:37;22.20;60.00
42905;DHT22;28550;51.228;4.528;2023-07-09T04:02:41;22.20;58.90
42905;DHT22;28550;51.228;4.528;2023-07-09T04:08:12;22.00;64.30
42905;DHT22;28550;51.228;4.528;2023-07-09T04:11:01;22.10;55.90
42905;DHT22;28550;51.228;4.528;2023-07-09T04:13:29;22.10;57.90
42905;DHT22;28550;51.228;4.528;2023-07-09T04:16:01;22.10;58.50
42905;DHT22;28550;51.228;4.528;2023-07-09T04:18:27;22.10;58.80
42905;DHT22;28550;51.228;4.528;2023-07-09T04:21:12;22.10;59.50
42905;DHT22;28550;51.228;4.528;2023-07-09T04:23:46;22.20;59.40
42905;DHT22;28550;51.228;4.528;2023-07-09T04:26:13;22.20;58.50
42905;DHT22;28550;51.228;4.528;2023-07-09T04:28:56;22.30;54.60
42905;DHT22;28550;51.228;4.528;2023-07-09T04:32:26;22.30;55.00
42905;DHT22;28550;51.228;4.528;2023-07-09T04:34:54;22.40;51.10
42905;DHT22;28550;51.228;4.528;2023-07-09T04:37:51;22.40;53.30
42905;DHT22;28550;51.228;4.528;2023-07-09T04:40:20;22.40;54.20
42905;DHT22;28550;51.228;4.528;2023-07-09T04:46:35;22.40;55.50
42905;DHT22;28550;51.228;4.528;2023-07-09T04:49:15;22.40;55.70
42905;DHT22;28550;51.228;4.528;2023-07-09T04:55:10;22.50;46.90
42905;DHT22;28550;51.228;4.528;2023-07-09T04:57:45;22.70;40.60
42905;DHT22;28550;51.228;4.528;2023-07-09T05:01:20;22.80;33.50
42905;DHT22;28550;51.228;4.528;2023-07-09T05:04:43;23.00;25.80
42905;DHT22;28550;51.228;4.528;2023-07-09T05:07:21;23.10;26.70
42905;DHT22;28550;51.228;4.528;2023-07-09T05:09:51;23.20;23.00
42905;DHT22;28550;51.228;4.528;2023-07-09T05:12:25;23.20;22.60
42905;DHT22;28550;51.228;4.528;2023-07-09T05:14:56;23.30;21.00
42905;DHT22;28550;51.228;4.528;2023-07-09T05:17:28;23.40;13.10
42905;DHT22;28550;51.228;4.528;2023-07-09T05:20:09;23.50;9.50
42905;DHT22;28550;51.228;4.528;2023-07-09T05:22:47;23.70;1.00
42905;DHT22;28550;51.228;4.528;2023-07-09T05:26:19;23.80;1.00
42905;DHT22;28550;51.228;4.528;2023-07-09T05:29:09;24.00;1.00
42905;DHT22;28550;51.228;4.528;2023-07-09T05:31:44;24.10;1.00
42905;DHT22;28550;51.228;4.528;2023-07-09T05:34:38;24.20;1.00
42905;DHT22;28550;51.228;4.528;2023-07-09T05:37:44;24.30;1.00
42905;DHT22;28550;51.228;4.528;2023-07-09T05:40:11;24.40;1.00
42905;DHT22;28550;51.228;4.528;2023-07-09T05:42:43;24.20;1.00
42905;DHT22;28550;51.228;4.528;2023-07-09T05:45:11;24.20;1.00
42905;DHT22;28550;51.228;4.528;2023-07-09T05:48:01;24.20;1.00
42905;DHT22;28550;51.228;4.528;2023-07-09T05:50:54;24.50;1.00
42905;DHT22;28550;51.228;4.528;2023-07-09T05:54:03;24.80;99.90
42905;DHT22;28550;51.228;4.528;2023-07-09T05:56:48;24.60;99.90
42905;DHT22;28550;51.228;4.528;2023-07-09T05:59:45;24.70;99.90
42905;DHT22;28550;51.228;4.528;2023-07-09T06:02:51;25.20;99.90
42905;DHT22;28550;51.228;4.528;2023-07-09T06:05:24;25.50;27.00
42905;DHT22;28550;51.228;4.528;2023-07-09T06:08:27;25.70;1.00
42905;DHT22;28550;51.228;4.528;2023-07-09T06:14:38;26.30;1.00
42905;DHT22;28550;51.228;4.528;2023-07-09T06:20:00;26.60;99.90
42905;DHT22;28550;51.228;4.528;2023-07-09T06:22:46;26.80;99.90
42905;DHT22;28550;51.228;4.528;2023-07-09T06:25:26;26.90;99.90
42905;DHT22;28550;51.228;4.528;2023-07-09T06:27:56;27.00;99.90
42905;DHT22;28550;51.228;4.528;2023-07-09T06:30:25;27.20;99.90
42905;DHT22;28550;51.228;4.528;2023-07-09T06:36:17;27.30;1.40
42905;DHT22;28550;51.228;4.528;2023-07-09T06:38:47;27.40;99.90
42905;DHT22;28550;51.228;4.528;2023-07-09T06:43:57;27.60;1.00
42905;DHT22;28550;51.228;4.528;2023-07-09T06:46:32;27.80;99.90
42905;DHT22;28550;51.228;4.528;2023-07-09T06:55:29;28.20;68.80
42905;DHT22;28550;51.228;4.528;2023-07-09T06:58:39;28.50;1.00
42905;DHT22;28550;51.228;4.528;2023-07-09T07:04:37;29.00;99.90
42905;DHT22;28550;51.228;4.528;2023-07-09T07:07:21;29.40;99.90
42905;DHT22;28550;51.228;4.528;2023-07-09T07:10:19;29.70;33.50
42905;DHT22;28550;51.228;4.528;2023-07-09T07:13:24;29.90;1.00
42905;DHT22;28550;51.228;4.528;2023-07-09T07:15:52;30.20;99.90
42905;DHT22;28550;51.228;4.528;2023-07-09T07:18:32;30.60;99.90
42905;DHT22;28550;51.228;4.528;2023-07-09T07:21:05;30.80;99.90
42905;DHT22;28550;51.228;4.528;2023-07-09T07:23:31;30.90;99.90
42905;DHT22;28550;51.228;4.528;2023-07-09T07:26:00;31.20;99.90
42905;DHT22;28550;51.228;4.528;2023-07-09T07:28:27;31.60;46.40
42905;DHT22;28550;51.228;4.528;2023-07-09T07:34:13;32.00;1.00
42905;DHT22;28550;51.228;4.528;2023-07-09T07:37:03;32.20;1.00
42905;DHT22;28550;51.228;4.528;2023-07-09T07:47:15;32.70;1.00
42905;DHT22;28550;51.228;4.528;2023-07-09T07:50:13;32.90;99.90
42905;DHT22;28550;51.228;4.528;2023-07-09T07:53:14;33.30;99.90
42905;DHT22;28550;51.228;4.528;2023-07-09T07:56:11;33.40;99.90
42905;DHT22;28550;51.228;4.528;2023-07-09T07:59:19;33.00;99.90
42905;DHT22;28550;51.228;4.528;2023-07-09T08:02:05;33.20;99.90
42905;DHT22;28550;51.228;4.528;2023-07-09T08:05:06;33.50;99.90
42905;DHT22;28550;51.228;4.528;2023-07-09T08:08:20;33.80;99.90
42905;DHT22;28550;51.228;4.528;2023-07-09T08:10:59;34.20;99.90
42905;DHT22;28550;51.228;4.528;2023-07-09T08:13:46;33.90;99.90
42905;DHT22;28550;51.228;4.528;2023-07-09T08:16:22;34.20;99.90
42905;DHT22;28550;51.228;4.528;2023-07-09T08:18:58;34.40;99.90
42905;DHT22;28550;51.228;4.528;2023-07-09T08:21:58;34.60;99.90
42905;DHT22;28550;51.228;4.528;2023-07-09T08:24:44;34.60;99.90
42905;DHT22;28550;51.228;4.528;2023-07-09T08:27:19;34.40;99.90
42905;DHT22;28550;51.228;4.528;2023-07-09T08:29:53;34.50;99.90
42905;DHT22;28550;51.228;4.528;2023-07-09T08:32:24;34.10;99.90
42905;DHT22;28550;51.228;4.528;2023-07-09T08:34:54;34.30;99.90
42905;DHT22;28550;51.228;4.528;2023-07-09T08:37:57;34.70;99.90
42905;DHT22;28550;51.228;4.528;2023-07-09T08:40:58;34.90;99.90
42905;DHT22;28550;51.228;4.528;2023-07-09T08:44:12;34.90;99.90
42905;DHT22;28550;51.228;4.528;2023-07-09T08:47:52;35.20;99.90
42905;DHT22;28550;51.228;4.528;2023-07-09T08:50:41;35.90;99.90
42905;DHT22;28550;51.228;4.528;2023-07-09T08:53:29;36.00;99.90
42905;DHT22;28550;51.228;4.528;2023-07-09T08:56:49;36.70;99.90
42905;DHT22;28550;51.228;4.528;2023-07-09T08:59:58;37.00;99.90
42905;DHT22;28550;51.228;4.528;2023-07-09T09:14:42;38.40;99.90
42905;DHT22;28550;51.228;4.528;2023-07-09T09:17:35;38.40;99.90
42905;DHT22;28550;51.228;4.528;2023-07-09T09:20:25;37.40;99.90
42905;DHT22;28550;51.228;4.528;2023-07-09T09:23:09;37.70;99.90
42905;DHT22;28550;51.228;4.528;2023-07-09T09:26:24;37.90;99.90
42905;DHT22;28550;51.228;4.528;2023-07-09T09:29:16;37.70;99.90
42905;DHT22;28550;51.228;4.528;2023-07-09T09:31:46;37.90;99.90
42905;DHT22;28550;51.228;4.528;2023-07-09T09:34:27;38.00;99.90
42905;DHT22;28550;51.228;4.528;2023-07-09T09:36:58;38.30;99.90
42905;DHT22;28550;51.228;4.528;2023-07-09T09:39:38;38.30;99.90
42905;DHT22;28550;51.228;4.528;2023-07-09T09:42:46;37.80;99.90
42905;DHT22;28550;51.228;4.528;2023-07-09T09:48:39;37.90;99.90
42905;DHT22;28550;51.228;4.528;2023-07-09T09:51:10;38.60;99.90
42905;DHT22;28550;51.228;4.528;2023-07-09T09:54:00;38.90;99.90
42905;DHT22;28550;51.228;4.528;2023-07-09T09:56:36;39.10;99.90
42905;DHT22;28550;51.228;4.528;2023-07-09T10:02:39;39.10;99.90
42905;DHT22;28550;51.228;4.528;2023-07-09T10:05:31;39.30;99.90
42905;DHT22;28550;51.228;4.528;2023-07-09T10:08:54;39.50;99.90
42905;DHT22;28550;51.228;4.528;2023-07-09T10:34:32;38.50;96.60
42905;DHT22;28550;51.228;4.528;2023-07-09T10:40:42;37.20;98.50
42905;DHT22;28550;51.228;4.528;2023-07-09T10:46:31;36.40;99.90
42905;DHT22;28550;51.228;4.528;2023-07-09T10:49:01;35.60;99.90
42905;DHT22;28550;51.228;4.528;2023-07-09T10:52:13;35.00;99.90
42905;DHT22;28550;51.228;4.528;2023-07-09T10:55:03;34.20;99.90
42905;DHT22;28550;51.228;4.528;2023-07-09T11:00:39;32.90;99.90
42905;DHT22;28550;51.228;4.528;2023-07-09T11:09:24;30.90;99.90
42905;DHT22;28550;51.228;4.528;2023-07-09T11:15:37;30.30;99.90
42905;DHT22;28550;51.228;4.528;2023-07-09T11:18:06;30.40;99.90
42905;DHT22;28550;51.228;4.528;2023-07-09T11:27:29;31.20;99.90
42905;DHT22;28550;51.228;4.528;2023-07-09T11:30:16;31.60;99.90
42905;DHT22;28550;51.228;4.528;2023-07-09T11:33:15;32.20;99.90
42905;DHT22;28550;51.228;4.528;2023-07-09T11:35:48;32.40;99.90
42905;DHT22;28550;51.228;4.528;2023-07-09T11:38:25;32.40;99.90
42905;DHT22;28550;51.228;4.528;2023-07-09T11:44:26;31.80;99.90
42905;DHT22;28550;51.228;4.528;2023-07-09T11:53:48;30.50;99.90
42905;DHT22;28550;51.228;4.528;2023-07-09T11:59:16;30.40;99.90
42905;DHT22;28550;51.228;4.528;2023-07-09T12:01:45;30.30;99.90
42905;DHT22;28550;51.228;4.528;2023-07-09T12:04:30;30.20;99.90
42905;DHT22;28550;51.228;4.528;2023-07-09T12:10:58;29.70;99.90
42905;DHT22;28550;51.228;4.528;2023-07-09T12:14:19;29.20;99.90
42905;DHT22;28550;51.228;4.528;2023-07-09T12:16:58;28.60;99.90
42905;DHT22;28550;51.228;4.528;2023-07-09T12:19:32;28.40;99.90
42905;DHT22;28550;51.228;4.528;2023-07-09T12:22:44;28.10;99.90
42905;DHT22;28550;51.228;4.528;2023-07-09T12:25:25;28.10;99.90
42905;DHT22;28550;51.228;4.528;2023-07-09T12:28:14;28.10;99.90
42905;DHT22;28550;51.228;4.528;2023-07-09T12:31:01;28.00;99.90
42905;DHT22;28550;51.228;4.528;2023-07-09T12:33:45;28.00;99.90
42905;DHT22;28550;51.228;4.528;2023-07-09T12:36:23;28.00;99.90
42905;DHT22;28550;51.228;4.528;2023-07-09T12:42:44;27.70;1.00
42905;DHT22;28550;51.228;4.528;2023-07-09T12:45:19;27.60;1.00
42905;DHT22;28550;51.228;4.528;2023-07-09T12:48:10;27.60;1.00
42905;DHT22;28550;51.228;4.528;2023-07-09T12:51:06;27.50;1.00
42905;DHT22;28550;51.228;4.528;2023-07-09T12:53:39;27.30;99.90
42905;DHT22;28550;51.228;4.528;2023-07-09T12:56:22;27.10;99.90
42905;DHT22;28550;51.228;4.528;2023-07-09T12:59:40;26.90;99.90
42905;DHT22;28550;51.228;4.528;2023-07-09T13:02:21;26.70;1.00
42905;DHT22;28550;51.228;4.528;2023-07-09T13:05:17;26.40;99.90
42905;DHT22;28550;51.228;4.528;2023-07-09T13:08:24;26.20;1.00
42905;DHT22;28550;51.228;4.528;2023-07-09T13:10:53;25.80;99.90
42905;DHT22;28550;51.228;4.528;2023-07-09T13:14:21;25.00;99.90
42905;DHT22;28550;51.228;4.528;2023-07-09T13:20:31;23.40;40.70
42905;DHT22;28550;51.228;4.528;2023-07-09T13:23:24;22.90;69.20
42905;DHT22;28550;51.228;4.528;2023-07-09T13:42:10;22.30;99.90
42905;DHT22;28550;51.228;4.528;2023-07-09T13:44:46;22.50;99.90
42905;DHT22;28550;51.228;4.528;2023-07-09T13:47:19;22.50;99.90
42905;DHT22;28550;51.228;4.528;2023-07-09T13:49:46;22.60;99.90
42905;DHT22;28550;51.228;4.528;2023-07-09T13:52:34;22.70;99.90
42905;DHT22;28550;51.228;4.528;2023-07-09T13:55:01;23.00;99.90
42905;DHT22;28550;51.228;4.528;2023-07-09T13:57:48;22.80;99.90
42905;DHT22;28550;51.228;4.528;2023-07-09T14:00:19;22.90;99.90
42905;DHT22;28550;51.228;4.528;2023-07-09T14:02:45;22.90;99.90
42905;DHT22;28550;51.228;4.528;2023-07-09T14:05:12;22.90;99.90
42905;DHT22;28550;51.228;4.528;2023-07-09T14:07:40;22.90;99.90
42905;DHT22;28550;51.228;4.528;2023-07-09T14:10:18;22.80;99.90
42905;DHT22;28550;51.228;4.528;2023-07-09T14:12:47;22.80;99.90
42905;DHT22;28550;51.228;4.528;2023-07-09T14:15:18;23.00;99.90
42905;DHT22;28550;51.228;4.528;2023-07-09T14:17:45;23.10;99.90
42905;DHT22;28550;51.228;4.528;2023-07-09T14:20:16;23.40;99.20
42905;DHT22;28550;51.228;4.528;2023-07-09T14:22:47;23.60;95.30
42905;DHT22;28550;51.228;4.528;2023-07-09T14:25:26;23.90;91.80
42905;DHT22;28550;51.228;4.528;2023-07-09T14:27:54;23.90;93.10
42905;DHT22;28550;51.228;4.528;2023-07-09T14:30:23;24.20;91.70
42905;DHT22;28550;51.228;4.528;2023-07-09T14:32:56;24.60;89.90
42905;DHT22;28550;51.228;4.528;2023-07-09T14:35:26;25.00;81.60
42905;DHT22;28550;51.228;4.528;2023-07-09T14:37:55;25.40;57.70
42905;DHT22;28550;51.228;4.528;2023-07-09T14:40:24;25.80;59.50
42905;DHT22;28550;51.228;4.528;2023-07-09T14:42:55;26.10;32.90
42905;DHT22;28550;51.228;4.528;2023-07-09T14:45:28;26.60;40.00
42905;DHT22;28550;51.228;4.528;2023-07-09T14:47:55;27.20;21.90
42905;DHT22;28550;51.228;4.528;2023-07-09T14:50:23;27.40;17.40
42905;DHT22;28550;51.228;4.528;2023-07-09T14:52:58;27.30;4.30
42905;DHT22;28550;51.228;4.528;2023-07-09T14:55:32;28.50;1.00
42905;DHT22;28550;51.228;4.528;2023-07-09T14:58:01;29.70;1.00
42905;DHT22;28550;51.228;4.528;2023-07-09T15:00:29;30.80;99.90
42905;DHT22;28550;51.228;4.528;2023-07-09T15:02:58;31.10;59.00
42905;DHT22;28550;51.228;4.528;2023-07-09T15:05:50;31.20;99.90
42905;DHT22;28550;51.228;4.528;2023-07-09T15:08:28;31.00;84.90
42905;DHT22;28550;51.228;4.528;2023-07-09T15:10:55;30.70;99.90
42905;DHT22;28550;51.228;4.528;2023-07-09T15:13:44;30.90;1.00
42905;DHT22;28550;51.228;4.528;2023-07-09T15:16:16;30.40;99.90
42905;DHT22;28550;51.228;4.528;2023-07-09T15:18:45;29.50;1.00
42905;DHT22;28550;51.228;4.528;2023-07-09T15:21:15;29.50;34.30
42905;DHT22;28550;51.228;4.528;2023-07-09T15:23:52;30.00;99.90
42905;DHT22;28550;51.228;4.528;2023-07-09T15:26:24;30.80;1.00
42905;DHT22;28550;51.228;4.528;2023-07-09T15:28:54;31.20;99.90
42905;DHT22;28550;51.228;4.528;2023-07-09T15:31:24;31.90;10.10
42905;DHT22;28550;51.228;4.528;2023-07-09T15:33:52;31.70;99.90
42905;DHT22;28550;51.228;4.528;2023-07-09T15:36:19;31.70;99.90
42905;DHT22;28550;51.228;4.528;2023-07-09T15:39:07;31.50;1.00
42905;DHT22;28550;51.228;4.528;2023-07-09T15:41:34;31.30;99.90
42905;DHT22;28550;51.228;4.528;2023-07-09T15:44:01;31.40;99.70
42905;DHT22;28550;51.228;4.528;2023-07-09T15:46:30;31.50;43.50
42905;DHT22;28550;51.228;4.528;2023-07-09T15:48:56;31.50;1.00
42905;DHT22;28550;51.228;4.528;2023-07-09T15:51:24;30.80;99.90
42905;DHT22;28550;51.228;4.528;2023-07-09T15:53:54;30.20;99.90
42905;DHT22;28550;51.228;4.528;2023-07-09T15:56:31;29.40;99.90
42905;DHT22;28550;51.228;4.528;2023-07-09T15:59:03;28.90;99.90
42905;DHT22;28550;51.228;4.528;2023-07-09T16:01:31;28.40;1.00
42905;DHT22;28550;51.228;4.528;2023-07-09T16:04:04;27.80;99.90
42905;DHT22;28550;51.228;4.528;2023-07-09T16:06:35;27.40;99.90
42905;DHT22;28550;51.228;4.528;2023-07-09T16:09:07;26.80;1.00
42905;DHT22;28550;51.228;4.528;2023-07-09T16:11:33;27.10;1.00
42905;DHT22;28550;51.228;4.528;2023-07-09T16:14:17;27.80;1.00
42905;DHT22;28550;51.228;4.528;2023-07-09T16:16:50;28.50;99.90
42905;DHT22;28550;51.228;4.528;2023-07-09T16:19:19;29.40;83.60
42905;DHT22;28550;51.228;4.528;2023-07-09T16:21:48;29.90;99.90
42905;DHT22;28550;51.228;4.528;2023-07-09T16:24:36;29.50;99.90
42905;DHT22;28550;51.228;4.528;2023-07-09T16:27:03;29.00;48.50
42905;DHT22;28550;51.228;4.528;2023-07-09T16:29:38;28.10;99.90
42905;DHT22;28550;51.228;4.528;2023-07-09T16:32:06;27.10;99.90
42905;DHT22;28550;51.228;4.528;2023-07-09T16:34:32;26.60;1.00
42905;DHT22;28550;51.228;4.528;2023-07-09T16:37:01;26.40;99.90
42905;DHT22;28550;51.228;4.528;2023-07-09T16:42:11;26.60;1.00
42905;DHT22;28550;51.228;4.528;2023-07-09T16:44:42;26.20;99.90
42905;DHT22;28550;51.228;4.528;2023-07-09T16:47:19;25.70;1.00
42905;DHT22;28550;51.228;4.528;2023-07-09T16:49:52;25.40;99.90
42905;DHT22;28550;51.228;4.528;2023-07-09T16:52:39;25.10;99.90
42905;DHT22;28550;51.228;4.528;2023-07-09T16:55:11;24.90;1.00
42905;DHT22;28550;51.228;4.528;2023-07-09T16:57:39;25.00;1.00
42905;DHT22;28550;51.228;4.528;2023-07-09T17:00:28;25.10;99.90
42905;DHT22;28550;51.228;4.528;2023-07-09T17:02:56;25.30;99.90
42905;DHT22;28550;51.228;4.528;2023-07-09T17:05:24;25.20;99.90
42905;DHT22;28550;51.228;4.528;2023-07-09T17:07:50;25.10;1.00
42905;DHT22;28550;51.228;4.528;2023-07-09T17:10:21;25.30;1.00
42905;DHT22;28550;51.228;4.528;2023-07-09T17:13:17;25.70;99.90
42905;DHT22;28550;51.228;4.528;2023-07-09T17:15:45;26.10;1.00
42905;DHT22;28550;51.228;4.528;2023-07-09T17:18:30;26.40;99.90
42905;DHT22;28550;51.228;4.528;2023-07-09T17:20:58;26.50;1.00
42905;DHT22;28550;51.228;4.528;2023-07-09T17:23:33;26.00;1.00
42905;DHT22;28550;51.228;4.528;2023-07-09T17:26:00;25.70;99.90
42905;DHT22;28550;51.228;4.528;2023-07-09T17:28:28;25.30;99.90
42905;DHT22;28550;51.228;4.528;2023-07-09T17:30:57;25.30;99.90
42905;DHT22;28550;51.228;4.528;2023-07-09T17:33:31;25.30;99.90
42905;DHT22;28550;51.228;4.528;2023-07-09T17:36:01;25.20;99.90
42905;DHT22;28550;51.228;4.528;2023-07-09T17:38:35;25.30;99.90
42905;DHT22;28550;51.228;4.528;2023-07-09T17:41:02;25.40;99.90
42905;DHT22;28550;51.228;4.528;2023-07-09T17:43:29;25.50;99.90
42905;DHT22;28550;51.228;4.528;2023-07-09T17:45:55;25.30;99.90
42905;DHT22;28550;51.228;4.528;2023-07-09T17:48:33;25.20;99.90
42905;DHT22;28550;51.228;4.528;2023-07-09T17:51:01;25.10;99.90
42905;DHT22;28550;51.228;4.528;2023-07-09T17:53:32;25.00;99.90
42905;DHT22;28550;51.228;4.528;2023-07-09T17:55:59;25.00;99.90
42905;DHT22;28550;51.228;4.528;2023-07-09T17:58:27;24.70;1.00
42905;DHT22;28550;51.228;4.528;2023-07-09T18:01:14;24.50;99.90
42905;DHT22;28550;51.228;4.528;2023-07-09T18:03:42;24.50;1.00
42905;DHT22;28550;51.228;4.528;2023-07-09T18:06:17;24.20;99.90
42905;DHT22;28550;51.228;4.528;2023-07-09T18:08:46;24.10;99.90
42905;DHT22;28550;51.228;4.528;2023-07-09T18:11:27;23.90;1.00
42905;DHT22;28550;51.228;4.528;2023-07-09T18:13:54;23.70;96.60
42905;DHT22;28550;51.228;4.528;2023-07-09T18:16:20;23.90;1.00
42905;DHT22;28550;51.228;4.528;2023-07-09T18:18:58;23.90;1.00
42905;DHT22;28550;51.228;4.528;2023-07-09T18:21:51;23.90;99.90
42905;DHT22;28550;51.228;4.528;2023-07-09T18:24:52;23.70;1.00
42905;DHT22;28550;51.228;4.528;2023-07-09T18:27:42;23.70;1.00
42905;DHT22;28550;51.228;4.528;2023-07-09T18:33:40;23.50;99.90
42905;DHT22;28550;51.228;4.528;2023-07-09T18:36:22;23.30;99.90
42905;DHT22;28550;51.228;4.528;2023-07-09T18:38:49;23.10;1.00
42905;DHT22;28550;51.228;4.528;2023-07-09T18:44:22;23.00;1.00
42905;DHT22;28550;51.228;4.528;2023-07-09T18:47:24;23.10;99.90
42905;DHT22;28550;51.228;4.528;2023-07-09T18:49:56;23.10;99.90
42905;DHT22;28550;51.228;4.528;2023-07-09T18:52:29;23.00;1.00
42905;DHT22;28550;51.228;4.528;2023-07-09T18:55:08;23.00;63.20
42905;DHT22;28550;51.228;4.528;2023-07-09T18:58:20;22.90;1.00
42905;DHT22;28550;51.228;4.528;2023-07-09T19:01:05;22.90;94.90
42905;DHT22;28550;51.228;4.528;2023-07-09T19:03:41;22.70;99.90
42905;DHT22;28550;51.228;4.528;2023-07-09T19:06:11;22.70;1.00
42905;DHT22;28550;51.228;4.528;2023-07-09T19:11:59;22.50;1.00
42905;DHT22;28550;51.228;4.528;2023-07-09T19:14:32;22.40;99.90
42905;DHT22;28550;51.228;4.528;2023-07-09T19:17:13;22.30;99.90
42905;DHT22;28550;51.228;4.528;2023-07-09T19:19:44;22.30;41.10
42905;DHT22;28550;51.228;4.528;2023-07-09T19:22:12;22.30;99.90
42905;DHT22;28550;51.228;4.528;2023-07-09T20:34:23;20.50;27.70
42905;DHT22;28550;51.228;4.528;2023-07-09T20:36:55;20.50;24.00
42905;DHT22;28550;51.228;4.528;2023-07-09T20:43:17;20.40;29.00
42905;DHT22;28550;51.228;4.528;2023-07-09T20:56:56;20.20;44.40
42905;DHT22;28550;51.228;4.528;2023-07-09T20:59:35;20.20;50.50
42905;DHT22;28550;51.228;4.528;2023-07-09T21:04:55;20.20;50.10
42905;DHT22;28550;51.228;4.528;2023-07-09T21:07:30;20.30;43.90
42905;DHT22;28550;51.228;4.528;2023-07-09T21:10:33;20.30;44.80
42905;DHT22;28550;51.228;4.528;2023-07-09T21:14:32;20.30;47.90
42905;DHT22;28550;51.228;4.528;2023-07-09T21:17:05;20.20;46.40
42905;DHT22;28550;51.228;4.528;2023-07-09T21:19:56;20.10;50.10
42905;DHT22;28550;51.228;4.528;2023-07-09T21:29:17;19.80;61.90
42905;DHT22;28550;51.228;4.528;2023-07-09T21:47:16;19.90;36.80
42905;DHT22;28550;51.228;4.528;2023-07-09T22:08:04;20.10;1.00
42905;DHT22;28550;51.228;4.528;2023-07-09T22:10:34;20.00;1.00
42905;DHT22;28550;51.228;4.528;2023-07-09T22:13:12;20.10;1.00
42905;DHT22;28550;51.228;4.528;2023-07-09T22:38:19;19.90;1.00
42905;DHT22;28550;51.228;4.528;2023-07-09T22:53:51;19.70;1.00